sensor_id;sensor_type;location;lat;lon;timestamp;P1;durP1;ratioP1;P2;durP2;ratioP2
45382;SDS011;42455;51.660;5.824;2023-03-05T00:00:47;8.0;;;2.0;;
45382;SDS011;42455;51.660;5.824;2023-03-05T00:05:54;6.0;;;2.0;;
45382;SDS011;42455;51.660;5.824;2023-03-05T00:11:00;6.0;;;2.0;;
45382;SDS011;42455;51.660;5.824;2023-03-05T00:16:06;7.0;;;2.0;;
45382;SDS011;42455;51.660;5.824;2023-03-05T00:21:17;8.0;;;2.0;;
45382;SDS011;42455;51.660;5.824;2023-03-05T00:26:18;7.0;;;3.0;;
45382;SDS011;42455;51.660;5.824;2023-03-05T00:31:25;7.0;;;3.0;;
45382;SDS011;42455;51.660;5.824;2023-03-05T00:36:30;14.0;;;5.0;;
45382;SDS011;42455;51.660;5.824;2023-03-05T00:41:36;14.0;;;5.0;;
45382;SDS011;42455;51.660;5.824;2023-03-05T00:46:42;13.0;;;5.0;;
45382;SDS011;42455;51.660;5.824;2023-03-05T00:51:49;10.0;;;3.0;;
45382;SDS011;42455;51.660;5.824;2023-03-05T00:56:55;9.0;;;2.5;;
45382;SDS011;42455;51.660;5.824;2023-03-05T01:02:01;7.0;;;2.0;;
45382;SDS011;42455;51.660;5.824;2023-03-05T01:07:08;8.0;;;2.0;;
45382;SDS011;42455;51.660;5.824;2023-03-05T01:12:13;7.0;;;2.0;;
45382;SDS011;42455;51.660;5.824;2023-03-05T01:17:20;7.0;;;2.0;;
45382;SDS011;42455;51.660;5.824;2023-03-05T01:22:26;8.5;;;3.0;;
45382;SDS011;42455;51.660;5.824;2023-03-05T01:27:32;8.0;;;2.0;;
45382;SDS011;42455;51.660;5.824;2023-03-05T01:32:38;10.0;;;3.0;;
45382;SDS011;42455;51.660;5.824;2023-03-05T01:37:45;7.0;;;2.0;;
45382;SDS011;42455;51.660;5.824;2023-03-05T01:42:57;9.5;;;2.0;;
45382;SDS011;42455;51.660;5.824;2023-03-05T01:47:56;7.0;;;2.0;;
45382;SDS011;42455;51.660;5.824;2023-03-05T01:53:03;8.0;;;3.0;;
45382;SDS011;42455;51.660;5.824;2023-03-05T01:58:09;7.5;;;2.5;;
45382;SDS011;42455;51.660;5.824;2023-03-05T02:03:14;8.0;;;3.0;;
45382;SDS011;42455;51.660;5.824;2023-03-05T02:08:20;8.0;;;3.0;;
45382;SDS011;42455;51.660;5.824;2023-03-05T02:13:29;7.0;;;2.0;;
45382;SDS011;42455;51.660;5.824;2023-03-05T02:18:32;8.0;;;2.0;;
45382;SDS011;42455;51.660;5.824;2023-03-05T02:23:38;8.5;;;3.0;;
45382;SDS011;42455;51.660;5.824;2023-03-05T02:28:51;9.0;;;3.0;;
45382;SDS011;42455;51.660;5.824;2023-03-05T02:33:51;7.0;;;3.0;;
45382;SDS011;42455;51.660;5.824;2023-03-05T02:38:57;8.0;;;3.0;;
45382;SDS011;42455;51.660;5.824;2023-03-05T02:44:03;7.0;;;3.0;;
45382;SDS011;42455;51.660;5.824;2023-03-05T02:49:09;7.0;;;2.0;;
45382;SDS011;42455;51.660;5.824;2023-03-05T02:54:16;5.5;;;2.0;;
45382;SDS011;42455;51.660;5.824;2023-03-05T02:59:22;6.0;;;2.0;;
45382;SDS011;42455;51.660;5.824;2023-03-05T03:04:28;6.0;;;2.0;;
45382;SDS011;42455;51.660;5.824;2023-03-05T03:09:34;7.0;;;2.0;;
45382;SDS011;42455;51.660;5.824;2023-03-05T03:14:41;6.0;;;2.0;;
45382;SDS011;42455;51.660;5.824;2023-03-05T03:19:47;6.0;;;3.0;;
45382;SDS011;42455;51.660;5.824;2023-03-05T03:24:53;8.0;;;3.0;;
45382;SDS011;42455;51.660;5.824;2023-03-05T03:29:59;7.0;;;3.0;;
45382;SDS011;42455;51.660;5.824;2023-03-05T03:35:06;8.0;;;3.0;;
45382;SDS011;42455;51.660;5.824;2023-03-05T03:40:12;8.0;;;4.0;;
45382;SDS011;42455;51.660;5.824;2023-03-05T03:45:17;8.0;;;3.0;;
45382;SDS011;42455;51.660;5.824;2023-03-05T03:50:23;9.0;;;4.0;;
45382;SDS011;42455;51.660;5.824;2023-03-05T03:55:28;7.5;;;3.0;;
45382;SDS011;42455;51.660;5.824;2023-03-05T04:00:35;9.0;;;3.0;;
45382;SDS011;42455;51.660;5.824;2023-03-05T04:05:41;7.0;;;3.5;;
45382;SDS011;42455;51.660;5.824;2023-03-05T04:10:47;7.0;;;3.0;;
45382;SDS011;42455;51.660;5.824;2023-03-05T04:15:53;10.0;;;4.0;;
45382;SDS011;42455;51.660;5.824;2023-03-05T04:20:59;7.0;;;3.0;;
45382;SDS011;42455;51.660;5.824;2023-03-05T04:26:06;7.0;;;3.0;;
45382;SDS011;42455;51.660;5.824;2023-03-05T04:31:12;7.0;;;3.0;;
45382;SDS011;42455;51.660;5.824;2023-03-05T04:36:18;7.0;;;3.0;;
45382;SDS011;42455;51.660;5.824;2023-03-05T04:41:24;6.0;;;3.0;;
45382;SDS011;42455;51.660;5.824;2023-03-05T04:46:30;6.0;;;3.0;;
45382;SDS011;42455;51.660;5.824;2023-03-05T04:51:37;8.0;;;3.0;;
45382;SDS011;42455;51.660;5.824;2023-03-05T04:56:43;9.0;;;3.0;;
45382;SDS011;42455;51.660;5.824;2023-03-05T05:01:49;6.0;;;2.0;;
45382;SDS011;42455;51.660;5.824;2023-03-05T05:06:55;7.0;;;3.0;;
45382;SDS011;42455;51.660;5.824;2023-03-05T05:12:02;6.0;;;3.0;;
45382;SDS011;42455;51.660;5.824;2023-03-05T05:17:08;7.0;;;3.0;;
45382;SDS011;42455;51.660;5.824;2023-03-05T05:22:14;8.0;;;3.0;;
45382;SDS011;42455;51.660;5.824;2023-03-05T05:27:20;7.5;;;3.0;;
45382;SDS011;42455;51.660;5.824;2023-03-05T05:32:26;5.0;;;2.0;;
45382;SDS011;42455;51.660;5.824;2023-03-05T05:37:33;7.0;;;3.0;;
45382;SDS011;42455;51.660;5.824;2023-03-05T05:42:38;6.0;;;3.0;;
45382;SDS011;42455;51.660;5.824;2023-03-05T05:47:43;8.0;;;3.0;;
45382;SDS011;42455;51.660;5.824;2023-03-05T05:52:50;8.0;;;3.0;;
45382;SDS011;42455;51.660;5.824;2023-03-05T05:57:54;5.0;;;3.0;;
45382;SDS011;42455;51.660;5.824;2023-03-05T06:03:01;7.0;;;3.0;;
45382;SDS011;42455;51.660;5.824;2023-03-05T06:08:07;7.5;;;3.0;;
45382;SDS011;42455;51.660;5.824;2023-03-05T06:13:13;9.0;;;3.0;;
45382;SDS011;42455;51.660;5.824;2023-03-05T06:18:19;7.0;;;3.0;;
45382;SDS011;42455;51.660;5.824;2023-03-05T06:23:26;9.0;;;4.0;;
45382;SDS011;42455;51.660;5.824;2023-03-05T06:28:32;8.0;;;4.0;;
45382;SDS011;42455;51.660;5.824;2023-03-05T06:33:38;6.5;;;4.0;;
45382;SDS011;42455;51.660;5.824;2023-03-05T06:38:44;9.5;;;5.0;;
45382;SDS011;42455;51.660;5.824;2023-03-05T06:43:50;10.0;;;5.0;;
45382;SDS011;42455;51.660;5.824;2023-03-05T06:48:56;9.0;;;6.0;;
45382;SDS011;42455;51.660;5.824;2023-03-05T06:54:03;8.0;;;6.0;;
45382;SDS011;42455;51.660;5.824;2023-03-05T06:59:09;8.0;;;6.0;;
45382;SDS011;42455;51.660;5.824;2023-03-05T07:04:14;8.0;;;6.0;;
45382;SDS011;42455;51.660;5.824;2023-03-05T07:09:20;9.0;;;6.0;;
45382;SDS011;42455;51.660;5.824;2023-03-05T07:14:26;7.0;;;6.0;;
45382;SDS011;42455;51.660;5.824;2023-03-05T07:19:33;8.0;;;6.0;;
45382;SDS011;42455;51.660;5.824;2023-03-05T07:24:39;8.0;;;6.5;;
45382;SDS011;42455;51.660;5.824;2023-03-05T07:29:45;8.0;;;6.0;;
45382;SDS011;42455;51.660;5.824;2023-03-05T07:34:51;8.0;;;7.0;;
45382;SDS011;42455;51.660;5.824;2023-03-05T07:39:58;9.0;;;7.0;;
45382;SDS011;42455;51.660;5.824;2023-03-05T07:45:03;7.0;;;6.0;;
45382;SDS011;42455;51.660;5.824;2023-03-05T07:50:09;9.0;;;6.0;;
45382;SDS011;42455;51.660;5.824;2023-03-05T07:55:14;8.0;;;6.0;;
45382;SDS011;42455;51.660;5.824;2023-03-05T08:00:20;9.0;;;7.0;;
45382;SDS011;42455;51.660;5.824;2023-03-05T08:05:27;9.0;;;7.0;;
45382;SDS011;42455;51.660;5.824;2023-03-05T08:10:33;8.0;;;6.0;;
45382;SDS011;42455;51.660;5.824;2023-03-05T08:15:39;9.0;;;6.0;;
45382;SDS011;42455;51.660;5.824;2023-03-05T08:20:46;7.0;;;6.0;;
45382;SDS011;42455;51.660;5.824;2023-03-05T08:25:51;7.0;;;5.5;;
45382;SDS011;42455;51.660;5.824;2023-03-05T08:30:58;6.0;;;5.0;;
45382;SDS011;42455;51.660;5.824;2023-03-05T08:36:04;5.0;;;5.0;;
45382;SDS011;42455;51.660;5.824;2023-03-05T08:41:10;5.5;;;4.0;;
45382;SDS011;42455;51.660;5.824;2023-03-05T08:46:16;6.0;;;4.0;;
45382;SDS011;42455;51.660;5.824;2023-03-05T08:51:23;7.0;;;4.0;;
45382;SDS011;42455;51.660;5.824;2023-03-05T08:56:29;5.0;;;4.0;;
45382;SDS011;42455;51.660;5.824;2023-03-05T09:01:35;5.0;;;4.0;;
45382;SDS011;42455;51.660;5.824;2023-03-05T09:06:41;6.5;;;5.0;;
45382;SDS011;42455;51.660;5.824;2023-03-05T09:11:47;6.0;;;5.0;;
45382;SDS011;42455;51.660;5.824;2023-03-05T09:16:54;6.0;;;5.0;;
45382;SDS011;42455;51.660;5.824;2023-03-05T09:22:00;6.0;;;5.0;;
45382;SDS011;42455;51.660;5.824;2023-03-05T09:27:06;6.0;;;5.0;;
45382;SDS011;42455;51.660;5.824;2023-03-05T09:32:12;7.0;;;5.0;;
45382;SDS011;42455;51.660;5.824;2023-03-05T09:37:18;6.0;;;5.0;;
45382;SDS011;42455;51.660;5.824;2023-03-05T09:42:42;7.0;;;6.0;;
45382;SDS011;42455;51.660;5.824;2023-03-05T09:47:51;7.0;;;6.0;;
45382;SDS011;42455;51.660;5.824;2023-03-05T09:52:36;7.0;;;6.0;;
45382;SDS011;42455;51.660;5.824;2023-03-05T09:57:42;6.0;;;6.0;;
45382;SDS011;42455;51.660;5.824;2023-03-05T10:02:50;6.0;;;5.5;;
45382;SDS011;42455;51.660;5.824;2023-03-05T10:07:55;4.0;;;4.0;;
45382;SDS011;42455;51.660;5.824;2023-03-05T10:13:03;4.5;;;4.0;;
45382;SDS011;42455;51.660;5.824;2023-03-05T10:18:34;6.0;;;4.0;;
45382;SDS011;42455;51.660;5.824;2023-03-05T10:23:22;4.0;;;3.0;;
45382;SDS011;42455;51.660;5.824;2023-03-05T10:28:19;4.0;;;4.0;;
45382;SDS011;42455;51.660;5.824;2023-03-05T10:33:59;4.0;;;4.0;;
45382;SDS011;42455;51.660;5.824;2023-03-05T10:40:01;3.0;;;3.0;;
45382;SDS011;42455;51.660;5.824;2023-03-05T10:43:45;3.0;;;2.0;;
45382;SDS011;42455;51.660;5.824;2023-03-05T10:48:47;3.0;;;3.0;;
45382;SDS011;42455;51.660;5.824;2023-03-05T10:53:53;4.0;;;3.0;;
45382;SDS011;42455;51.660;5.824;2023-03-05T10:58:56;4.0;;;3.0;;
45382;SDS011;42455;51.660;5.824;2023-03-05T11:04:02;4.0;;;3.0;;
45382;SDS011;42455;51.660;5.824;2023-03-05T11:09:23;4.0;;;3.0;;
45382;SDS011;42455;51.660;5.824;2023-03-05T11:14:23;4.0;;;3.0;;
45382;SDS011;42455;51.660;5.824;2023-03-05T11:19:23;4.0;;;3.0;;
45382;SDS011;42455;51.660;5.824;2023-03-05T11:24:27;3.0;;;3.0;;
45382;SDS011;42455;51.660;5.824;2023-03-05T11:29:33;3.0;;;2.0;;
45382;SDS011;42455;51.660;5.824;2023-03-05T11:34:39;3.0;;;2.0;;
45382;SDS011;42455;51.660;5.824;2023-03-05T11:39:44;2.0;;;2.0;;
45382;SDS011;42455;51.660;5.824;2023-03-05T11:44:54;2.0;;;2.0;;
45382;SDS011;42455;51.660;5.824;2023-03-05T11:49:59;2.0;;;2.0;;
45382;SDS011;42455;51.660;5.824;2023-03-05T11:55:21;2.0;;;2.0;;
45382;SDS011;42455;51.660;5.824;2023-03-05T12:00:14;2.0;;;1.0;;
45382;SDS011;42455;51.660;5.824;2023-03-05T12:05:15;2.0;;;1.0;;
45382;SDS011;42455;51.660;5.824;2023-03-05T12:10:23;2.0;;;1.0;;
45382;SDS011;42455;51.660;5.824;2023-03-05T12:16:04;2.0;;;1.0;;
45382;SDS011;42455;51.660;5.824;2023-03-05T12:21:05;1.0;;;1.0;;
45382;SDS011;42455;51.660;5.824;2023-03-05T12:25:47;2.0;;;1.0;;
45382;SDS011;42455;51.660;5.824;2023-03-05T12:31:26;2.0;;;1.0;;
45382;SDS011;42455;51.660;5.824;2023-03-05T12:35:52;2.0;;;1.0;;
45382;SDS011;42455;51.660;5.824;2023-03-05T12:41:38;1.0;;;1.0;;
45382;SDS011;42455;51.660;5.824;2023-03-05T12:46:24;2.0;;;1.0;;
45382;SDS011;42455;51.660;5.824;2023-03-05T12:51:10;1.5;;;1.0;;
45382;SDS011;42455;51.660;5.824;2023-03-05T12:56:20;1.0;;;1.0;;
45382;SDS011;42455;51.660;5.824;2023-03-05T13:01:49;1.0;;;1.0;;
45382;SDS011;42455;51.660;5.824;2023-03-05T13:06:30;1.0;;;1.0;;
45382;SDS011;42455;51.660;5.824;2023-03-05T13:11:36;1.0;;;1.0;;
45382;SDS011;42455;51.660;5.824;2023-03-05T13:16:41;2.0;;;1.0;;
45382;SDS011;42455;51.660;5.824;2023-03-05T13:21:55;2.0;;;1.0;;
45382;SDS011;42455;51.660;5.824;2023-03-05T13:26:54;2.0;;;1.0;;
45382;SDS011;42455;51.660;5.824;2023-03-05T13:32:01;2.0;;;1.0;;
45382;SDS011;42455;51.660;5.824;2023-03-05T13:37:06;2.0;;;1.0;;
45382;SDS011;42455;51.660;5.824;2023-03-05T13:42:17;2.0;;;1.0;;
45382;SDS011;42455;51.660;5.824;2023-03-05T13:47:18;3.0;;;1.0;;
45382;SDS011;42455;51.660;5.824;2023-03-05T13:52:25;1.0;;;1.0;;
45382;SDS011;42455;51.660;5.824;2023-03-05T13:57:41;1.0;;;1.0;;
45382;SDS011;42455;51.660;5.824;2023-03-05T14:02:35;1.0;;;1.0;;
45382;SDS011;42455;51.660;5.824;2023-03-05T14:07:42;1.0;;;1.0;;
45382;SDS011;42455;51.660;5.824;2023-03-05T14:12:49;2.0;;;1.0;;
45382;SDS011;42455;51.660;5.824;2023-03-05T14:17:58;2.0;;;1.0;;
45382;SDS011;42455;51.660;5.824;2023-03-05T14:23:00;2.0;;;1.0;;
45382;SDS011;42455;51.660;5.824;2023-03-05T14:28:25;1.0;;;1.0;;
45382;SDS011;42455;51.660;5.824;2023-03-05T14:33:12;2.0;;;1.0;;
45382;SDS011;42455;51.660;5.824;2023-03-05T14:38:21;1.0;;;1.0;;
45382;SDS011;42455;51.660;5.824;2023-03-05T14:43:25;2.0;;;1.0;;
45382;SDS011;42455;51.660;5.824;2023-03-05T14:48:31;2.0;;;1.0;;
45382;SDS011;42455;51.660;5.824;2023-03-05T14:53:43;1.0;;;1.0;;
45382;SDS011;42455;51.660;5.824;2023-03-05T14:58:44;1.0;;;1.0;;
45382;SDS011;42455;51.660;5.824;2023-03-05T15:03:50;1.0;;;1.0;;
45382;SDS011;42455;51.660;5.824;2023-03-05T15:08:56;1.0;;;0.5;;
45382;SDS011;42455;51.660;5.824;2023-03-05T15:14:02;1.0;;;1.0;;
45382;SDS011;42455;51.660;5.824;2023-03-05T15:19:10;1.0;;;1.0;;
45382;SDS011;42455;51.660;5.824;2023-03-05T15:24:15;1.0;;;0.0;;
45382;SDS011;42455;51.660;5.824;2023-03-05T15:29:21;2.0;;;1.0;;
45382;SDS011;42455;51.660;5.824;2023-03-05T15:34:27;1.0;;;1.0;;
45382;SDS011;42455;51.660;5.824;2023-03-05T15:39:32;2.0;;;1.0;;
45382;SDS011;42455;51.660;5.824;2023-03-05T15:44:38;2.0;;;1.0;;
45382;SDS011;42455;51.660;5.824;2023-03-05T15:49:45;1.0;;;1.0;;
45382;SDS011;42455;51.660;5.824;2023-03-05T15:54:50;1.5;;;1.0;;
45382;SDS011;42455;51.660;5.824;2023-03-05T15:59:56;1.0;;;1.0;;
45382;SDS011;42455;51.660;5.824;2023-03-05T16:05:03;1.0;;;1.0;;
45382;SDS011;42455;51.660;5.824;2023-03-05T16:10:10;1.0;;;1.0;;
45382;SDS011;42455;51.660;5.824;2023-03-05T16:15:16;2.0;;;1.0;;
45382;SDS011;42455;51.660;5.824;2023-03-05T16:20:21;1.5;;;1.0;;
45382;SDS011;42455;51.660;5.824;2023-03-05T16:25:27;2.0;;;1.0;;
45382;SDS011;42455;51.660;5.824;2023-03-05T16:30:33;2.0;;;1.0;;
45382;SDS011;42455;51.660;5.824;2023-03-05T16:35:40;1.0;;;1.0;;
45382;SDS011;42455;51.660;5.824;2023-03-05T16:40:46;2.0;;;2.0;;
45382;SDS011;42455;51.660;5.824;2023-03-05T16:45:52;3.0;;;2.0;;
45382;SDS011;42455;51.660;5.824;2023-03-05T16:50:58;3.0;;;2.0;;
45382;SDS011;42455;51.660;5.824;2023-03-05T16:56:05;2.5;;;2.0;;
45382;SDS011;42455;51.660;5.824;2023-03-05T17:01:11;2.0;;;2.0;;
45382;SDS011;42455;51.660;5.824;2023-03-05T17:06:19;2.0;;;1.5;;
45382;SDS011;42455;51.660;5.824;2023-03-05T17:11:23;3.0;;;2.0;;
45382;SDS011;42455;51.660;5.824;2023-03-05T17:16:29;2.0;;;2.0;;
45382;SDS011;42455;51.660;5.824;2023-03-05T17:21:35;2.0;;;1.0;;
45382;SDS011;42455;51.660;5.824;2023-03-05T17:26:42;2.0;;;1.0;;
45382;SDS011;42455;51.660;5.824;2023-03-05T17:31:48;2.0;;;1.0;;
45382;SDS011;42455;51.660;5.824;2023-03-05T17:36:54;1.0;;;1.0;;
45382;SDS011;42455;51.660;5.824;2023-03-05T17:41:59;2.0;;;1.0;;
45382;SDS011;42455;51.660;5.824;2023-03-05T17:47:05;1.0;;;1.0;;
45382;SDS011;42455;51.660;5.824;2023-03-05T17:52:11;2.0;;;1.0;;
45382;SDS011;42455;51.660;5.824;2023-03-05T17:57:17;2.0;;;1.0;;
45382;SDS011;42455;51.660;5.824;2023-03-05T18:02:23;1.0;;;1.0;;
45382;SDS011;42455;51.660;5.824;2023-03-05T18:07:29;2.0;;;1.0;;
45382;SDS011;42455;51.660;5.824;2023-03-05T18:12:36;2.0;;;2.0;;
45382;SDS011;42455;51.660;5.824;2023-03-05T18:17:43;3.0;;;2.0;;
45382;SDS011;42455;51.660;5.824;2023-03-05T18:22:48;3.0;;;2.0;;
45382;SDS011;42455;51.660;5.824;2023-03-05T18:27:54;3.0;;;2.0;;
45382;SDS011;42455;51.660;5.824;2023-03-05T18:33:00;4.0;;;3.0;;
45382;SDS011;42455;51.660;5.824;2023-03-05T18:38:07;4.0;;;3.0;;
45382;SDS011;42455;51.660;5.824;2023-03-05T18:43:13;4.0;;;4.0;;
45382;SDS011;42455;51.660;5.824;2023-03-05T18:48:19;5.0;;;4.0;;
45382;SDS011;42455;51.660;5.824;2023-03-05T18:53:25;5.0;;;4.0;;
45382;SDS011;42455;51.660;5.824;2023-03-05T18:58:31;5.0;;;5.0;;
45382;SDS011;42455;51.660;5.824;2023-03-05T19:03:38;5.0;;;5.0;;
45382;SDS011;42455;51.660;5.824;2023-03-05T19:08:44;5.0;;;5.0;;
45382;SDS011;42455;51.660;5.824;2023-03-05T19:13:51;5.0;;;5.0;;
45382;SDS011;42455;51.660;5.824;2023-03-05T19:18:56;5.0;;;5.0;;
45382;SDS011;42455;51.660;5.824;2023-03-05T19:24:02;5.0;;;5.0;;
45382;SDS011;42455;51.660;5.824;2023-03-05T19:29:09;4.0;;;4.0;;
45382;SDS011;42455;51.660;5.824;2023-03-05T19:34:15;5.0;;;4.0;;
45382;SDS011;42455;51.660;5.824;2023-03-05T19:39:20;4.0;;;4.0;;
45382;SDS011;42455;51.660;5.824;2023-03-05T19:44:26;5.0;;;5.0;;
45382;SDS011;42455;51.660;5.824;2023-03-05T19:49:32;5.0;;;4.0;;
45382;SDS011;42455;51.660;5.824;2023-03-05T19:54:38;4.0;;;4.0;;
45382;SDS011;42455;51.660;5.824;2023-03-05T19:59:44;3.0;;;3.0;;
45382;SDS011;42455;51.660;5.824;2023-03-05T20:04:50;3.0;;;2.0;;
45382;SDS011;42455;51.660;5.824;2023-03-05T20:09:56;4.0;;;2.5;;
45382;SDS011;42455;51.660;5.824;2023-03-05T20:15:03;5.0;;;2.0;;
45382;SDS011;42455;51.660;5.824;2023-03-05T20:20:13;3.0;;;2.0;;
45382;SDS011;42455;51.660;5.824;2023-03-05T20:25:16;3.0;;;3.0;;
45382;SDS011;42455;51.660;5.824;2023-03-05T20:30:21;3.0;;;2.0;;
45382;SDS011;42455;51.660;5.824;2023-03-05T20:35:27;3.0;;;3.0;;
45382;SDS011;42455;51.660;5.824;2023-03-05T20:40:34;3.0;;;3.0;;
45382;SDS011;42455;51.660;5.824;2023-03-05T20:45:40;4.0;;;3.0;;
45382;SDS011;42455;51.660;5.824;2023-03-05T20:50:46;4.5;;;4.0;;
45382;SDS011;42455;51.660;5.824;2023-03-05T20:55:52;4.0;;;3.5;;
45382;SDS011;42455;51.660;5.824;2023-03-05T21:00:59;5.0;;;3.0;;
45382;SDS011;42455;51.660;5.824;2023-03-05T21:06:05;5.0;;;4.0;;
45382;SDS011;42455;51.660;5.824;2023-03-05T21:11:11;5.0;;;4.0;;
45382;SDS011;42455;51.660;5.824;2023-03-05T21:16:18;6.0;;;5.0;;
45382;SDS011;42455;51.660;5.824;2023-03-05T21:21:23;6.5;;;6.0;;
45382;SDS011;42455;51.660;5.824;2023-03-05T21:26:29;8.0;;;7.0;;
45382;SDS011;42455;51.660;5.824;2023-03-05T21:31:36;6.5;;;6.0;;
45382;SDS011;42455;51.660;5.824;2023-03-05T21:36:41;8.0;;;6.0;;
45382;SDS011;42455;51.660;5.824;2023-03-05T21:41:47;7.0;;;7.0;;
45382;SDS011;42455;51.660;5.824;2023-03-05T21:46:53;9.0;;;7.0;;
45382;SDS011;42455;51.660;5.824;2023-03-05T21:51:59;7.0;;;7.0;;
45382;SDS011;42455;51.660;5.824;2023-03-05T21:57:07;8.0;;;7.0;;
45382;SDS011;42455;51.660;5.824;2023-03-05T22:02:11;7.0;;;7.0;;
45382;SDS011;42455;51.660;5.824;2023-03-05T22:07:18;8.0;;;7.0;;
45382;SDS011;42455;51.660;5.824;2023-03-05T22:12:23;7.0;;;7.0;;
45382;SDS011;42455;51.660;5.824;2023-03-05T22:17:30;7.0;;;6.0;;
45382;SDS011;42455;51.660;5.824;2023-03-05T22:22:36;7.0;;;7.0;;
45382;SDS011;42455;51.660;5.824;2023-03-05T22:27:42;7.0;;;6.0;;
45382;SDS011;42455;51.660;5.824;2023-03-05T22:32:48;7.0;;;6.0;;
45382;SDS011;42455;51.660;5.824;2023-03-05T22:37:55;8.0;;;7.0;;
45382;SDS011;42455;51.660;5.824;2023-03-05T22:43:01;8.0;;;7.0;;
45382;SDS011;42455;51.660;5.824;2023-03-05T22:48:07;8.0;;;7.0;;
45382;SDS011;42455;51.660;5.824;2023-03-05T22:53:13;7.0;;;7.0;;
45382;SDS011;42455;51.660;5.824;2023-03-05T22:58:19;8.0;;;7.0;;
45382;SDS011;42455;51.660;5.824;2023-03-05T23:03:26;8.0;;;7.0;;
45382;SDS011;42455;51.660;5.824;2023-03-05T23:08:32;8.0;;;7.0;;
45382;SDS011;42455;51.660;5.824;2023-03-05T23:13:38;8.0;;;7.0;;
45382;SDS011;42455;51.660;5.824;2023-03-05T23:18:44;7.0;;;6.0;;
45382;SDS011;42455;51.660;5.824;2023-03-05T23:23:50;5.5;;;5.0;;
45382;SDS011;42455;51.660;5.824;2023-03-05T23:28:56;5.5;;;5.0;;
45382;SDS011;42455;51.660;5.824;2023-03-05T23:34:03;5.0;;;5.0;;
45382;SDS011;42455;51.660;5.824;2023-03-05T23:39:08;4.0;;;4.0;;
45382;SDS011;42455;51.660;5.824;2023-03-05T23:44:14;5.0;;;4.0;;
45382;SDS011;42455;51.660;5.824;2023-03-05T23:49:19;5.0;;;4.0;;
45382;SDS011;42455;51.660;5.824;2023-03-05T23:54:25;5.0;;;4.0;;
45382;SDS011;42455;51.660;5.824;2023-03-05T23:59:31;5.0;;;4.0;;
